createdAt,value
2017-11-16T00:00:30.908Z,16.27
2017-11-16T00:02:57.476Z,13.40
2017-11-16T00:05:24.074Z,15.00
2017-11-16T00:07:50.661Z,12.77
2017-11-16T00:10:17.239Z,16.03
2017-11-16T00:12:43.837Z,14.30
2017-11-16T00:15:10.424Z,11.50
2017-11-16T00:17:37.021Z,16.90
2017-11-16T00:20:03.611Z,15.90
2017-11-16T00:22:30.204Z,12.03
2017-11-16T00:24:56.901Z,15.50
2017-11-16T00:27:23.479Z,11.70
2017-11-16T00:29:50.067Z,13.00
2017-11-16T00:32:16.660Z,18.53
2017-11-16T00:34:43.309Z,13.70
2017-11-16T00:37:09.875Z,11.50
2017-11-16T00:39:36.496Z,11.63
2017-11-16T00:42:03.101Z,14.37
2017-11-16T00:44:29.704Z,11.37
2017-11-16T00:46:56.280Z,9.77
2017-11-16T00:49:22.875Z,12.30
2017-11-16T00:51:49.463Z,11.60
2017-11-16T00:54:16.060Z,10.57
2017-11-16T00:56:42.652Z,12.60
2017-11-16T00:59:09.255Z,12.70
2017-11-16T01:01:35.871Z,13.33
2017-11-16T01:04:02.469Z,14.73
2017-11-16T01:06:29.051Z,17.93
2017-11-16T01:08:55.639Z,14.80
2017-11-16T01:11:22.243Z,17.50
2017-11-16T01:13:48.832Z,14.20
2017-11-16T01:16:15.429Z,14.17
2017-11-16T01:18:42.016Z,15.73
2017-11-16T01:21:08.677Z,11.20
2017-11-16T01:23:35.518Z,15.50
2017-11-16T01:26:02.092Z,14.20
2017-11-16T01:28:28.687Z,14.20
2017-11-16T01:30:55.271Z,13.30
2017-11-16T01:33:21.884Z,15.37
2017-11-16T01:35:48.470Z,11.60
2017-11-16T01:38:15.067Z,15.00
2017-11-16T01:40:41.671Z,13.33
2017-11-16T01:43:08.308Z,17.03
2017-11-16T01:45:34.888Z,16.63
2017-11-16T01:48:01.478Z,14.50
2017-11-16T01:50:28.072Z,13.83
2017-11-16T01:52:54.654Z,15.87
2017-11-16T01:55:21.248Z,13.20
2017-11-16T01:57:47.835Z,10.10
2017-11-16T02:00:14.530Z,13.73
2017-11-16T02:02:41.102Z,15.90
2017-11-16T02:05:07.690Z,12.50
2017-11-16T02:07:34.282Z,13.63
2017-11-16T02:10:00.892Z,14.77
2017-11-16T02:12:27.475Z,13.30
2017-11-16T02:14:54.056Z,10.27
2017-11-16T02:17:20.644Z,12.00
2017-11-16T02:19:47.223Z,12.13
2017-11-16T02:22:13.815Z,13.73
2017-11-16T02:24:40.400Z,13.60
2017-11-16T02:27:07.004Z,14.37
2017-11-16T02:29:33.620Z,14.70
2017-11-16T02:32:00.225Z,14.20
2017-11-16T02:34:26.920Z,12.53
2017-11-16T02:36:53.492Z,12.77
2017-11-16T02:39:20.233Z,12.93
2017-11-16T02:41:47.101Z,11.60
2017-11-16T02:44:13.705Z,11.30
2017-11-16T02:46:40.296Z,12.97
2017-11-16T02:49:06.879Z,12.03
2017-11-16T02:51:33.474Z,15.10
2017-11-16T02:54:00.057Z,10.57
2017-11-16T02:56:26.647Z,12.93
2017-11-16T02:58:53.235Z,14.17
2017-11-16T03:01:19.848Z,12.20
2017-11-16T03:03:46.452Z,13.27
2017-11-16T03:06:13.043Z,12.13
2017-11-16T03:08:39.640Z,12.97
2017-11-16T03:11:06.236Z,13.40
2017-11-16T03:13:32.831Z,16.00
2017-11-16T03:15:59.429Z,13.63
2017-11-16T03:18:26.015Z,14.07
2017-11-16T03:20:52.616Z,18.37
2017-11-16T03:23:19.211Z,12.23
2017-11-16T03:25:45.791Z,14.40
2017-11-16T03:28:12.386Z,13.60
2017-11-16T03:30:38.985Z,16.30
2017-11-16T03:33:05.588Z,12.30
2017-11-16T03:35:32.189Z,16.50
2017-11-16T03:37:58.768Z,15.60
2017-11-16T03:40:25.368Z,20.60
2017-11-16T03:42:51.959Z,17.07
2017-11-16T03:45:18.552Z,15.10
2017-11-16T03:47:45.140Z,18.63
2017-11-16T03:50:11.744Z,15.80
2017-11-16T03:52:38.328Z,18.93
2017-11-16T03:55:04.913Z,17.40
2017-11-16T03:57:31.508Z,18.17
2017-11-16T03:59:58.095Z,17.23
2017-11-16T04:02:24.687Z,13.53
2017-11-16T04:04:51.275Z,16.40
2017-11-16T04:07:17.901Z,15.73
2017-11-16T04:09:44.479Z,18.47
2017-11-16T04:12:11.080Z,16.60
2017-11-16T04:14:37.666Z,17.00
2017-11-16T04:17:04.260Z,14.53
2017-11-16T04:19:30.854Z,15.40
2017-11-16T04:21:57.448Z,15.27
2017-11-16T04:24:24.043Z,15.63
2017-11-16T04:26:50.636Z,14.23
2017-11-16T04:29:17.219Z,19.60
2017-11-16T04:31:43.815Z,17.80
2017-11-16T04:34:10.404Z,13.87
2017-11-16T04:36:36.997Z,13.73
2017-11-16T04:39:03.584Z,15.13
2017-11-16T04:41:30.176Z,19.00
2017-11-16T04:43:56.755Z,15.73
2017-11-16T04:46:23.352Z,16.97
2017-11-16T04:48:49.943Z,14.60
2017-11-16T04:51:16.531Z,19.23
2017-11-16T04:53:43.116Z,16.80
2017-11-16T04:56:09.716Z,16.43
2017-11-16T04:58:36.312Z,17.33
2017-11-16T05:01:02.908Z,18.10
2017-11-16T05:03:29.512Z,19.10
2017-11-16T05:05:56.104Z,17.77
2017-11-16T05:08:22.696Z,14.70
2017-11-16T05:10:49.288Z,19.93
2017-11-16T05:13:15.884Z,20.83
2017-11-16T05:15:42.471Z,22.27
2017-11-16T05:18:09.082Z,21.30
2017-11-16T05:20:35.672Z,19.37
2017-11-16T05:23:02.269Z,21.90
2017-11-16T05:25:28.873Z,20.23
2017-11-16T05:27:55.462Z,23.10
2017-11-16T05:30:22.048Z,20.57
2017-11-16T05:32:48.644Z,18.87
2017-11-16T05:35:15.256Z,19.20
2017-11-16T05:37:41.953Z,18.60
2017-11-16T05:40:08.631Z,16.70
2017-11-16T05:42:35.284Z,20.10
2017-11-16T05:45:01.859Z,25.20
2017-11-16T05:47:28.467Z,20.33
2017-11-16T05:49:55.051Z,20.30
2017-11-16T05:52:21.651Z,21.83
2017-11-16T05:54:48.268Z,22.23
2017-11-16T05:57:14.869Z,23.07
2017-11-16T05:59:41.461Z,20.90
2017-11-16T06:02:08.061Z,21.43
2017-11-16T06:04:34.664Z,19.03
2017-11-16T06:07:01.249Z,24.50
2017-11-16T06:09:27.857Z,21.80
2017-11-16T06:11:54.439Z,20.83
2017-11-16T06:14:21.036Z,20.47
2017-11-16T06:16:47.630Z,18.97
2017-11-16T06:19:14.235Z,20.77
2017-11-16T06:21:40.832Z,21.23
2017-11-16T06:24:07.431Z,25.20
2017-11-16T06:26:34.024Z,23.83
2017-11-16T06:29:00.655Z,25.30
2017-11-16T06:31:27.233Z,22.23
2017-11-16T06:33:53.823Z,23.90
2017-11-16T06:36:20.430Z,20.40
2017-11-16T06:38:47.025Z,22.90
2017-11-16T06:41:13.623Z,30.30
2017-11-16T06:43:40.218Z,22.77
2017-11-16T06:46:06.814Z,26.80
2017-11-16T06:48:34.078Z,23.47
2017-11-16T06:51:00.667Z,20.97
2017-11-16T06:53:27.276Z,27.60
2017-11-16T06:55:53.861Z,20.93
2017-11-16T06:58:20.459Z,19.27
2017-11-16T07:00:47.043Z,22.30
2017-11-16T07:03:13.639Z,25.07
2017-11-16T07:05:40.230Z,20.27
2017-11-16T07:08:06.820Z,22.73
2017-11-16T07:10:33.444Z,26.73
2017-11-16T07:13:00.028Z,18.67
2017-11-16T07:15:26.631Z,21.20
2017-11-16T07:17:53.227Z,19.70
2017-11-16T07:20:19.839Z,24.70
2017-11-16T07:22:46.427Z,25.83
2017-11-16T07:25:13.031Z,20.97
2017-11-16T07:27:39.624Z,23.63
2017-11-16T07:30:06.251Z,22.53
2017-11-16T07:32:32.883Z,24.77
2017-11-16T07:34:59.512Z,28.00
2017-11-16T07:37:26.103Z,26.27
2017-11-16T07:39:52.691Z,21.97
2017-11-16T07:42:19.296Z,22.30
2017-11-16T07:44:45.885Z,25.73
2017-11-16T07:47:12.556Z,26.17
2017-11-16T07:49:39.175Z,25.47
2017-11-16T07:52:05.807Z,23.87
2017-11-16T07:54:32.389Z,25.50
2017-11-16T07:56:58.996Z,24.03
2017-11-16T07:59:25.594Z,24.10
2017-11-16T08:01:52.179Z,26.87
2017-11-16T08:04:18.867Z,28.90
2017-11-16T08:06:45.456Z,26.30
2017-11-16T08:09:12.040Z,26.87
2017-11-16T08:11:38.643Z,28.47
2017-11-16T08:14:05.279Z,27.83
2017-11-16T08:16:31.876Z,29.70
2017-11-16T08:18:58.467Z,29.40
2017-11-16T08:21:25.060Z,27.77
2017-11-16T08:23:51.658Z,25.00
2017-11-16T08:26:18.251Z,27.57
2017-11-16T08:28:44.842Z,25.67
2017-11-16T08:31:11.446Z,24.50
2017-11-16T08:33:38.048Z,25.67
2017-11-16T08:36:04.644Z,25.40
2017-11-16T08:38:31.315Z,25.73
2017-11-16T08:40:57.949Z,26.47
2017-11-16T08:43:24.535Z,25.30
2017-11-16T08:45:51.123Z,30.30
2017-11-16T08:48:17.716Z,27.13
2017-11-16T08:50:44.311Z,23.50
2017-11-16T08:53:10.908Z,25.77
2017-11-16T08:55:37.507Z,26.27
2017-11-16T08:58:04.099Z,22.80
2017-11-16T09:00:30.697Z,26.10
2017-11-16T09:02:57.340Z,25.80
2017-11-16T09:05:23.923Z,22.07
2017-11-16T09:07:50.543Z,24.43
2017-11-16T09:10:17.128Z,23.03
2017-11-16T09:12:43.728Z,23.40
2017-11-16T09:15:10.311Z,24.73
2017-11-16T09:17:36.923Z,23.83
2017-11-16T09:20:03.516Z,22.70
2017-11-16T09:22:30.112Z,23.43
2017-11-16T09:24:56.725Z,23.27
2017-11-16T09:27:23.303Z,25.80
2017-11-16T09:29:49.906Z,25.80
2017-11-16T09:32:16.502Z,23.97
2017-11-16T09:34:43.092Z,29.97
2017-11-16T09:37:09.675Z,25.73
2017-11-16T09:39:36.272Z,22.60
2017-11-16T09:42:02.893Z,25.73
2017-11-16T09:44:29.493Z,23.40
2017-11-16T09:46:56.075Z,20.90
2017-11-16T09:49:22.702Z,23.53
2017-11-16T09:51:49.268Z,21.57
2017-11-16T09:54:15.852Z,23.60
2017-11-16T09:56:42.451Z,21.53
2017-11-16T09:59:09.046Z,24.27
2017-11-16T10:01:35.687Z,23.67
2017-11-16T10:04:02.285Z,22.13
2017-11-16T10:06:28.907Z,23.87
2017-11-16T10:08:55.505Z,25.03
2017-11-16T10:11:22.087Z,22.53
2017-11-16T10:13:48.679Z,21.37
2017-11-16T10:16:15.270Z,25.40
2017-11-16T10:18:41.882Z,21.50
2017-11-16T10:21:08.480Z,22.87
2017-11-16T10:23:35.110Z,21.80
2017-11-16T10:26:01.695Z,21.10
2017-11-16T10:28:28.300Z,24.20
2017-11-16T10:30:54.900Z,21.73
2017-11-16T10:33:21.492Z,24.93
2017-11-16T10:35:48.084Z,20.70
2017-11-16T10:38:14.672Z,20.33
2017-11-16T10:40:41.272Z,23.83
2017-11-16T10:43:07.853Z,21.97
2017-11-16T10:45:34.455Z,21.13
2017-11-16T10:48:01.048Z,24.40
2017-11-16T10:50:27.676Z,23.70
2017-11-16T10:52:54.271Z,24.60
2017-11-16T10:55:22.039Z,26.80
2017-11-16T10:57:48.639Z,22.73
2017-11-16T11:00:15.227Z,21.40
2017-11-16T11:02:41.823Z,26.30
2017-11-16T11:05:08.412Z,23.77
2017-11-16T11:07:35.008Z,21.97
2017-11-16T11:10:01.604Z,24.43
2017-11-16T11:12:28.195Z,29.27
2017-11-16T11:14:54.784Z,21.67
2017-11-16T11:17:21.392Z,24.37
2017-11-16T11:19:48.009Z,23.77
2017-11-16T11:22:14.579Z,21.10
2017-11-16T11:24:41.188Z,21.70
2017-11-16T11:27:07.790Z,20.93
2017-11-16T11:29:34.387Z,21.07
2017-11-16T11:32:01.017Z,23.70
2017-11-16T11:34:27.604Z,20.83
2017-11-16T11:36:54.189Z,20.53
2017-11-16T11:39:20.789Z,23.47
2017-11-16T11:41:47.375Z,21.97
2017-11-16T11:44:13.980Z,20.40
2017-11-16T11:46:40.572Z,21.70
2017-11-16T11:49:07.171Z,24.10
2017-11-16T11:51:33.772Z,21.47
2017-11-16T11:54:00.359Z,21.33
2017-11-16T11:56:26.955Z,23.67
2017-11-16T11:58:53.549Z,20.80
2017-11-16T12:01:20.151Z,22.60
2017-11-16T12:03:46.741Z,21.63
2017-11-16T12:06:13.323Z,21.23
2017-11-16T12:08:39.923Z,20.67
2017-11-16T12:11:06.516Z,22.43
2017-11-16T12:13:33.111Z,20.87
2017-11-16T12:15:59.703Z,21.53
2017-11-16T12:18:26.315Z,19.20
2017-11-16T12:20:52.905Z,22.80
2017-11-16T12:23:24.938Z,20.40
2017-11-16T12:25:51.539Z,26.47
2017-11-16T12:28:18.173Z,24.50
2017-11-16T12:30:45.594Z,21.00
2017-11-16T12:33:12.171Z,19.77
2017-11-16T12:35:38.805Z,19.20
2017-11-16T12:38:05.500Z,17.80
2017-11-16T12:40:32.076Z,19.73
2017-11-16T12:42:58.709Z,21.07
2017-11-16T12:45:25.271Z,21.50
2017-11-16T12:47:51.876Z,21.67
2017-11-16T12:50:18.469Z,21.10
2017-11-16T12:52:45.060Z,22.10
2017-11-16T12:55:11.660Z,18.90
2017-11-16T12:57:38.263Z,20.70
2017-11-16T13:00:04.852Z,18.63
2017-11-16T13:02:31.451Z,19.73
2017-11-16T13:04:58.052Z,19.40
2017-11-16T13:07:24.639Z,16.90
2017-11-16T13:09:51.244Z,15.80
2017-11-16T13:12:17.832Z,20.33
2017-11-16T13:14:44.493Z,18.27
2017-11-16T13:17:11.040Z,18.20
2017-11-16T13:19:37.636Z,17.87
2017-11-16T13:22:05.012Z,19.90
2017-11-16T13:24:31.599Z,20.23
2017-11-16T13:26:58.198Z,15.90
2017-11-16T13:29:24.779Z,17.47
2017-11-16T13:31:51.399Z,18.97
2017-11-16T13:34:17.968Z,19.23
2017-11-16T13:36:44.575Z,16.20
2017-11-16T13:39:11.175Z,17.17
2017-11-16T13:41:37.821Z,19.47
2017-11-16T13:44:04.437Z,16.93
2017-11-16T13:46:31.028Z,20.13
2017-11-16T13:48:57.628Z,15.80
2017-11-16T13:51:24.276Z,16.77
2017-11-16T13:53:50.876Z,15.53
2017-11-16T13:56:17.479Z,16.70
2017-11-16T13:58:44.081Z,17.57
2017-11-16T14:01:10.671Z,16.33
2017-11-16T14:03:37.302Z,18.00
2017-11-16T14:06:03.902Z,16.53
2017-11-16T14:08:30.515Z,15.77
2017-11-16T14:10:57.103Z,18.60
2017-11-16T14:13:23.717Z,16.97
2017-11-16T14:15:50.353Z,18.10
2017-11-16T14:18:16.929Z,18.33
2017-11-16T14:20:43.535Z,18.20
2017-11-16T14:23:10.133Z,17.33
2017-11-16T14:25:36.732Z,18.90
2017-11-16T14:28:03.323Z,17.40
2017-11-16T14:30:29.930Z,20.40
2017-11-16T14:32:56.516Z,14.67
2017-11-16T14:35:23.159Z,16.20
2017-11-16T14:37:49.745Z,16.13
2017-11-16T14:40:16.340Z,16.27
2017-11-16T14:42:42.961Z,17.40
2017-11-16T14:45:09.549Z,15.90
2017-11-16T14:47:36.147Z,20.37
2017-11-16T14:50:02.732Z,19.03
2017-11-16T14:52:29.360Z,14.53
2017-11-16T14:54:55.972Z,16.00
2017-11-16T14:57:22.556Z,16.20
2017-11-16T14:59:49.156Z,20.07
2017-11-16T15:02:15.754Z,16.70
2017-11-16T15:04:42.346Z,16.43
2017-11-16T15:07:08.938Z,18.90
2017-11-16T15:09:35.554Z,17.93
2017-11-16T15:12:02.143Z,15.87
2017-11-16T15:14:28.748Z,19.70
2017-11-16T15:16:55.339Z,18.17
2017-11-16T15:19:21.939Z,21.90
2017-11-16T15:21:48.529Z,18.40
2017-11-16T15:24:15.121Z,18.60
2017-11-16T15:26:41.718Z,19.43
2017-11-16T15:29:08.311Z,19.00
2017-11-16T15:31:34.905Z,19.13
2017-11-16T15:34:01.492Z,16.87
2017-11-16T15:36:28.091Z,18.40
2017-11-16T15:38:54.692Z,17.70
2017-11-16T15:41:21.296Z,15.80
2017-11-16T15:43:47.883Z,17.07
2017-11-16T15:46:14.468Z,13.73
2017-11-16T15:48:41.070Z,17.73
2017-11-16T15:51:07.661Z,21.63
2017-11-16T15:53:34.268Z,16.93
2017-11-16T15:56:00.852Z,18.07
2017-11-16T15:58:27.558Z,21.50
2017-11-16T16:00:54.135Z,16.00
2017-11-16T16:03:20.727Z,15.83
2017-11-16T16:05:47.332Z,17.97
2017-11-16T16:08:13.921Z,17.73
2017-11-16T16:10:40.516Z,17.90
2017-11-16T16:13:07.109Z,16.13
2017-11-16T16:15:33.708Z,19.40
2017-11-16T16:18:00.304Z,15.33
2017-11-16T16:20:26.900Z,19.33
2017-11-16T16:22:53.492Z,18.67
2017-11-16T16:25:20.088Z,16.27
2017-11-16T16:27:46.686Z,16.00
2017-11-16T16:30:13.287Z,20.93
2017-11-16T16:32:39.879Z,20.67
2017-11-16T16:35:06.477Z,22.60
2017-11-16T16:37:33.080Z,19.10
2017-11-16T16:39:59.672Z,16.93
2017-11-16T16:42:26.281Z,16.07
2017-11-16T16:44:52.867Z,17.33
2017-11-16T16:47:19.464Z,19.27
2017-11-16T16:49:46.062Z,18.07
2017-11-16T16:52:12.664Z,19.63
2017-11-16T16:54:39.255Z,18.17
2017-11-16T16:57:05.897Z,21.40
2017-11-16T16:59:32.488Z,24.97
2017-11-16T17:01:59.079Z,25.17
2017-11-16T17:04:25.676Z,22.77
2017-11-16T17:06:52.267Z,21.43
2017-11-16T17:09:18.860Z,21.73
2017-11-16T17:11:45.455Z,19.80
2017-11-16T17:14:12.056Z,21.60
2017-11-16T17:16:39.611Z,18.37
2017-11-16T17:19:06.204Z,21.63
2017-11-16T17:21:32.799Z,20.57
2017-11-16T17:23:59.387Z,18.60
2017-11-16T17:26:25.983Z,21.30
2017-11-16T17:28:52.586Z,27.40
2017-11-16T17:31:19.179Z,22.13
2017-11-16T17:33:45.786Z,23.10
2017-11-16T17:36:12.382Z,21.60
2017-11-16T17:38:38.980Z,22.67
2017-11-16T17:41:05.580Z,20.27
2017-11-16T17:43:32.184Z,21.93
2017-11-16T17:45:58.777Z,23.50
2017-11-16T17:48:25.375Z,22.80
2017-11-16T17:50:51.978Z,20.40
2017-11-16T17:53:18.597Z,22.70
2017-11-16T17:55:45.171Z,20.73
2017-11-16T17:58:11.759Z,22.90
2017-11-16T18:00:38.403Z,22.60
2017-11-16T18:03:05.093Z,24.80
2017-11-16T18:05:31.692Z,27.70
2017-11-16T18:07:58.288Z,27.07
2017-11-16T18:10:24.891Z,27.30
2017-11-16T18:12:51.500Z,24.60
2017-11-16T18:15:18.118Z,25.20
2017-11-16T18:17:44.712Z,23.10
2017-11-16T18:20:11.319Z,24.53
2017-11-16T18:22:37.943Z,29.53
2017-11-16T18:25:04.532Z,22.87
2017-11-16T18:27:31.123Z,24.63
2017-11-16T18:29:57.727Z,24.37
2017-11-16T18:32:24.320Z,23.43
2017-11-16T18:34:50.919Z,23.40
2017-11-16T18:37:17.879Z,23.53
2017-11-16T18:39:44.627Z,22.50
2017-11-16T18:42:11.205Z,22.23
2017-11-16T18:44:37.857Z,23.50
2017-11-16T18:47:04.440Z,22.80
2017-11-16T18:49:31.141Z,23.73
2017-11-16T18:51:57.724Z,28.23
2017-11-16T18:54:24.312Z,24.60
2017-11-16T18:59:48.227Z,25.60
2017-11-16T19:02:14.856Z,24.93
2017-11-16T19:04:41.525Z,23.23
2017-11-16T19:07:08.124Z,23.13
2017-11-16T19:09:34.750Z,23.40
2017-11-16T19:12:01.362Z,27.37
2017-11-16T19:14:27.968Z,25.20
2017-11-16T19:16:54.555Z,24.53
2017-11-16T19:19:21.153Z,24.37
2017-11-16T19:21:47.744Z,20.17
2017-11-16T19:24:14.456Z,22.10
2017-11-16T19:26:42.081Z,20.43
2017-11-16T19:29:08.683Z,20.70
2017-11-16T19:31:35.283Z,23.37
2017-11-16T19:34:01.876Z,23.33
2017-11-16T19:36:28.567Z,19.73
2017-11-16T19:38:55.157Z,27.33
2017-11-16T19:41:21.837Z,21.97
2017-11-16T19:43:48.480Z,22.57
2017-11-16T19:46:15.108Z,24.67
2017-11-16T19:48:41.739Z,19.90
2017-11-16T19:51:08.384Z,21.13
2017-11-16T19:53:34.988Z,24.70
2017-11-16T19:56:01.573Z,19.57
2017-11-16T19:58:28.189Z,22.40
2017-11-16T20:00:54.765Z,21.17
2017-11-16T20:03:21.384Z,20.87
2017-11-16T20:05:47.972Z,22.40
2017-11-16T20:08:14.628Z,19.90
2017-11-16T20:10:41.248Z,24.63
2017-11-16T20:13:07.943Z,20.00
2017-11-16T20:15:34.491Z,22.73
2017-11-16T20:18:01.083Z,20.00
2017-11-16T20:20:27.685Z,20.77
2017-11-16T20:22:54.278Z,42.23
2017-11-16T20:25:20.898Z,61.30
2017-11-16T20:27:47.503Z,38.17
2017-11-16T20:30:14.955Z,24.77
2017-11-16T20:32:41.564Z,31.00
2017-11-16T20:35:08.179Z,32.40
2017-11-16T20:37:53.882Z,28.80
2017-11-16T20:40:36.067Z,22.73
2017-11-16T20:43:08.435Z,22.23
2017-11-16T20:45:49.914Z,29.00
2017-11-16T20:48:21.091Z,26.20
2017-11-16T20:51:02.630Z,26.30
2017-11-16T20:53:45.766Z,27.60
2017-11-16T20:56:12.367Z,24.17
2017-11-16T20:58:39.075Z,26.50
2017-11-16T21:01:06.014Z,24.27
2017-11-16T21:03:32.632Z,25.37
2017-11-16T21:05:59.261Z,27.93
2017-11-16T21:08:25.862Z,26.87
2017-11-16T21:10:52.460Z,26.87
2017-11-16T21:13:19.052Z,23.40
2017-11-16T21:15:45.653Z,24.87
2017-11-16T21:18:12.260Z,25.13
2017-11-16T21:20:38.898Z,25.20
2017-11-16T21:23:05.508Z,26.63
2017-11-16T21:25:32.105Z,27.93
2017-11-16T21:27:58.711Z,25.33
2017-11-16T21:30:25.321Z,27.97
2017-11-16T21:32:51.940Z,29.40
2017-11-16T21:35:18.558Z,24.00
2017-11-16T21:37:45.288Z,23.17
2017-11-16T21:40:11.895Z,28.07
2017-11-16T21:42:38.503Z,25.40
2017-11-16T21:45:05.111Z,25.60
2017-11-16T21:47:31.712Z,24.13
2017-11-16T21:49:58.316Z,22.93
2017-11-16T21:52:24.913Z,28.03
2017-11-16T21:54:51.524Z,24.03
2017-11-16T21:57:18.120Z,24.90
2017-11-16T21:59:44.729Z,23.27
2017-11-16T22:02:11.331Z,23.40
2017-11-16T22:04:37.961Z,25.93
2017-11-16T22:07:04.551Z,25.83
2017-11-16T22:09:31.157Z,23.77
2017-11-16T22:11:57.756Z,24.50
2017-11-16T22:14:24.343Z,24.57
2017-11-16T22:16:50.944Z,23.77
2017-11-16T22:19:17.541Z,27.70
2017-11-16T22:21:44.135Z,29.93
2017-11-16T22:24:10.731Z,25.40
2017-11-16T22:26:37.335Z,26.67
2017-11-16T22:29:03.936Z,25.77
2017-11-16T22:31:30.535Z,28.00
2017-11-16T22:33:57.133Z,27.63
2017-11-16T22:36:23.748Z,25.63
2017-11-16T22:38:50.387Z,23.60
2017-11-16T22:41:16.984Z,26.30
2017-11-16T22:43:43.572Z,24.93
2017-11-16T22:46:10.175Z,26.50
2017-11-16T22:48:36.768Z,26.37
2017-11-16T22:51:03.369Z,27.97
2017-11-16T22:53:29.952Z,29.90
2017-11-16T22:55:56.544Z,24.03
2017-11-16T22:58:23.158Z,24.57
2017-11-16T23:00:49.752Z,24.63
2017-11-16T23:03:16.352Z,26.70
2017-11-16T23:05:42.940Z,22.27
2017-11-16T23:08:09.548Z,29.70
2017-11-16T23:10:36.132Z,26.73
2017-11-16T23:13:02.748Z,20.33
2017-11-16T23:15:29.335Z,28.40
2017-11-16T23:17:55.932Z,27.27
2017-11-16T23:20:22.530Z,23.00
2017-11-16T23:22:49.127Z,26.30
2017-11-16T23:25:15.728Z,25.97
2017-11-16T23:27:42.315Z,24.70
2017-11-16T23:30:08.922Z,24.97
2017-11-16T23:32:35.538Z,26.17
2017-11-16T23:35:02.126Z,26.90
2017-11-16T23:37:28.716Z,26.10
2017-11-16T23:39:55.306Z,26.77
2017-11-16T23:42:21.899Z,23.77
2017-11-16T23:44:48.490Z,26.67
2017-11-16T23:47:15.111Z,27.53
2017-11-16T23:49:41.719Z,23.03
2017-11-16T23:52:08.323Z,30.73
2017-11-16T23:54:34.910Z,24.80
2017-11-16T23:57:01.504Z,24.87
2017-11-16T23:59:28.096Z,28.00
